Stations météo

réclame
Mon MeteoGroup
Hemavan, Suède (2104): Température de l'air & dewpoint: 14.06.2019 00:00:00 - 20.06.2019 00:00:00 (CEST)Hemavan, Suède (2104): Vitesse du vent: 14.06.2019 00:00:00 - 20.06.2019 00:00:00 (CEST)Hemavan, Suède (2104): Direction du vent: 14.06.2019 00:00:00 - 20.06.2019 00:00:00 (CEST)Hemavan, Suède (2104): visibility: 14.06.2019 00:00:00 - 20.06.2019 00:00:00 (CEST)
Date & Time tt [°C] td [°C] ff [km/h] ff [knt] dd vv [km]
20.06.2019 00:00:00 6,0 4,0 0 0 N 10
19.06.2019 23:00:00 8,0 6,0 4 2 - 10
19.06.2019 22:00:00 12,0 5,0 5 3 NNW 10
19.06.2019 21:00:00 12,0 5,0 8 4 NNW 10
19.06.2019 20:00:00 13,0 5,0 11 6 NW 10
19.06.2019 19:00:00 14,0 5,0 9 5 W 10
19.06.2019 18:00:00 13,0 5,0 11 6 WNW 10
19.06.2019 17:00:00 14,0 6,0 15 8 WNW 10
19.06.2019 16:00:00 13,0 5,0 13 7 NW 10
19.06.2019 15:00:00 13,0 5,0 11 6 WNW 10
19.06.2019 14:00:00 13,0 6,0 11 6 NW 10
19.06.2019 13:00:00 11,0 5,0 8 4 NW 10
19.06.2019 12:00:00 11,0 6,0 11 6 NW 10
19.06.2019 11:00:00 10,0 6,0 9 5 W 10
19.06.2019 10:00:00 10,0 6,0 9 5 W 10
19.06.2019 09:00:00 10,0 8,0 5 3 - 10
19.06.2019 08:00:00 9,0 8,0 5 3 - 10
19.06.2019 07:00:00 8,0 7,0 5 3 NNW 10
19.06.2019 06:00:00 7,0 6,0 4 2 - 10
19.06.2019 05:00:00 6,0 6,0 0 0 N 10
19.06.2019 04:00:00 6,0 6,0 5 3 - 10
19.06.2019 03:00:00 6,0 6,0 0 0 N 10
19.06.2019 02:00:00 7,0 6,0 2 1 - 10
19.06.2019 01:00:00 7,0 6,0 4 2 - 10
19.06.2019 00:00:00 7,0 5,0 5 3 W 10
18.06.2019 23:00:00 9,0 6,0 2 1 - 10
18.06.2019 22:00:00 12,0 6,0 5 3 WNW 10
18.06.2019 21:00:00 13,0 5,0 8 4 NNW 10
18.06.2019 20:00:00 14,0 5,0 11 6 NW 10
18.06.2019 19:00:00 15,0 4,0 15 8 WNW 10
18.06.2019 18:00:00 15,0 4,0 13 7 NW 10
18.06.2019 17:00:00 13,0 4,0 15 8 NW 10
18.06.2019 16:00:00 14,0 5,0 11 6 W 10
18.06.2019 15:00:00 13,0 5,0 11 6 WNW 10
18.06.2019 14:00:00 11,0 5,0 5 3 - 10
18.06.2019 13:00:00 9,0 6,0 9 5 WNW 10
18.06.2019 12:00:00 9,0 6,0 21 11 W 10
18.06.2019 11:00:00 10,0 8,0 13 7 WNW 10
18.06.2019 10:00:00 9,0 8,0 8 4 NW 10
18.06.2019 09:00:00 10,0 7,0 4 2 - 10
18.06.2019 08:00:00 8,0 6,0 8 4 W 10
18.06.2019 07:00:00 8,0 6,0 5 3 SW 10
18.06.2019 06:00:00 8,0 6,0 2 1 - 10
18.06.2019 05:00:00 7,0 6,0 4 2 W 10
18.06.2019 04:00:00 7,0 6,0 0 0 N 10
18.06.2019 03:00:00 7,0 6,0 4 2 - 10
18.06.2019 02:00:00 6,0 5,0 0 0 N 10
18.06.2019 01:00:00 6,0 5,0 2 1 - 10
18.06.2019 00:00:00 8,0 6,0 8 4 N 10
17.06.2019 23:00:00 8,0 7,0 8 4 NNW 10
17.06.2019 22:00:00 9,0 7,0 15 8 NNW 10
17.06.2019 21:00:00 10,0 7,0 11 6 W 10
17.06.2019 20:00:00 10,0 8,0 13 7 W 10
17.06.2019 19:00:00 10,0 8,0 15 8 W 10
17.06.2019 18:00:00 11,0 8,0 13 7 NW 10
17.06.2019 17:00:00 11,0 8,0 11 6 NW 10
17.06.2019 16:00:00 12,0 8,0 13 7 NW 10
17.06.2019 15:00:00 13,0 9,0 15 8 WNW 10
17.06.2019 14:00:00 12,0 8,0 18 10 WNW 10
17.06.2019 13:00:00 12,0 8,0 13 7 WNW 10
17.06.2019 12:00:00 13,0 8,0 11 6 WNW 10
17.06.2019 11:00:00 13,0 8,0 11 6 W 10
17.06.2019 10:00:00 13,0 8,0 13 7 W 10
17.06.2019 09:00:00 14,0 8,0 15 8 W 10
17.06.2019 08:00:00 13,0 7,0 9 5 WNW 10
17.06.2019 07:00:00 13,0 9,0 9 5 NNW 10
17.06.2019 06:00:00 10,0 9,0 4 2 - 10
17.06.2019 05:00:00 9,0 8,0 2 1 - 10
17.06.2019 04:00:00 7,0 7,0 5 3 N 10
17.06.2019 03:00:00 7,0 7,0 0 0 N 10
17.06.2019 02:00:00 8,0 8,0 4 2 - 10
17.06.2019 01:00:00 9,0 9,0 0 0 N 10
17.06.2019 00:00:00 11,0 10,0 0 0 N 10
16.06.2019 23:00:00 13,0 9,0 0 0 N 10
16.06.2019 22:00:00 17,0 9,0 8 4 WNW 10
16.06.2019 21:00:00 20,0 9,0 5 3 WNW 10
16.06.2019 20:00:00 21,0 8,0 9 5 NW 10
16.06.2019 19:00:00 21,0 8,0 9 5 NW 10
16.06.2019 18:00:00 22,0 9,0 9 5 NW 10
16.06.2019 17:00:00 22,0 9,0 11 6 NW 10
16.06.2019 16:00:00 22,0 9,0 9 5 NW 10
16.06.2019 15:00:00 21,0 9,0 8 4 NW 10
16.06.2019 14:00:00 20,0 9,0 9 5 N 10
16.06.2019 13:00:00 19,0 9,0 8 4 WNW 10
16.06.2019 12:00:00 19,0 10,0 4 2 - 10
16.06.2019 11:00:00 18,0 10,0 4 2 - 10
16.06.2019 10:00:00 17,0 9,0 2 1 - 10
16.06.2019 09:00:00 15,0 9,0 5 3 - 10
16.06.2019 08:00:00 14,0 9,0 4 2 - 10
16.06.2019 07:00:00 11,0 8,0 5 3 - 10
16.06.2019 06:00:00 10,0 8,0 4 2 - 10
16.06.2019 05:00:00 7,0 7,0 2 1 - 8
16.06.2019 04:00:00 5,0 5,0 4 2 - 0,2
16.06.2019 03:00:00 6,0 6,0 4 2 NE 10
16.06.2019 02:00:00 7,0 7,0 0 0 N 10
16.06.2019 01:00:00 8,0 7,0 2 1 NNE 10
16.06.2019 00:00:00 10,0 8,0 0 0 N 10
15.06.2019 23:00:00 13,0 8,0 5 3 - 10
15.06.2019 22:00:00 15,0 9,0 9 5 WNW 10
15.06.2019 21:00:00 17,0 9,0 11 6 WNW 10
15.06.2019 20:00:00 18,0 9,0 16 9 NNW 10
15.06.2019 19:00:00 19,0 9,0 15 8 NNW 10
15.06.2019 18:00:00 19,0 9,0 15 8 WNW 10
15.06.2019 17:00:00 20,0 9,0 15 8 WNW 10
15.06.2019 16:00:00 20,0 9,0 11 6 WNW 10
15.06.2019 15:00:00 18,0 9,0 11 6 WNW 10
15.06.2019 14:00:00 19,0 9,0 9 5 WNW 10
15.06.2019 13:00:00 19,0 8,0 8 4 NW 10
15.06.2019 12:00:00 19,0 8,0 4 2 - 10
15.06.2019 11:00:00 17,0 8,0 5 3 NW 10
15.06.2019 10:00:00 16,0 8,0 5 3 - 10
15.06.2019 09:00:00 14,0 7,0 2 1 - 10
15.06.2019 08:00:00 12,0 7,0 4 2 - 10
15.06.2019 07:00:00 12,0 8,0 5 3 NNW 10
15.06.2019 06:00:00 12,0 7,0 0 0 N 10
15.06.2019 05:00:00 11,0 7,0 0 0 N 10
15.06.2019 04:00:00 10,0 8,0 4 2 - 10
15.06.2019 03:00:00 10,0 8,0 0 0 N 10
15.06.2019 02:00:00 10,0 7,0 0 0 N 10
15.06.2019 01:00:00 11,0 7,0 4 2 NNE 10
15.06.2019 00:00:00 12,0 7,0 5 3 N 10
14.06.2019 23:00:00 13,0 6,0 4 2 - 10
14.06.2019 22:00:00 14,0 6,0 5 3 NW 10
14.06.2019 21:00:00 15,0 5,0 2 1 - 10
14.06.2019 20:00:00 15,0 6,0 5 3 ESE 10
14.06.2019 19:00:00 15,0 4,0 8 4 SSE 10
14.06.2019 18:00:00 16,0 6,0 5 3 S 10
14.06.2019 17:00:00 16,0 6,0 8 4 SSE 10
14.06.2019 16:00:00 16,0 5,0 5 3 - 10
14.06.2019 15:00:00 14,0 6,0 0 0 N 10
14.06.2019 14:00:00 15,0 6,0 0 0 N 10
14.06.2019 13:00:00 14,0 5,0 8 4 S 10
14.06.2019 12:00:00 13,0 4,0 9 5 S 10
14.06.2019 11:00:00 12,0 4,0 9 5 S 10
14.06.2019 10:00:00 11,0 4,0 15 8 ESE 10
14.06.2019 09:00:00 11,0 4,0 16 9 S 10
14.06.2019 08:00:00 10,0 4,0 13 7 SSE 10
14.06.2019 07:00:00 9,0 5,0 4 2 - 10
14.06.2019 06:00:00 9,0 6,0 4 2 - 10
14.06.2019 05:00:00 9,0 6,0 4 2 - 10
14.06.2019 04:00:00 9,0 5,0 8 4 E 10
14.06.2019 03:00:00 9,0 5,0 8 4 E 10
14.06.2019 02:00:00 10,0 5,0 16 9 SSE 10
14.06.2019 01:00:00 9,0 4,0 24 13 SSE 10
14.06.2019 00:00:00 10,0 3,0 22 12 SSE 10

tt = Température de l'air
td = dewpoint
ff = Vitesse du vent
dd = Direction du vent
vv = visibility

stations d'obs. à proximité